Terminal Aerodrome Forecast
Issued by NWS

Home | Current Version | Previous Version | Text Only | Print | Product List | Glossary On
Versions: 1 2 3 4 5 6 7 8 9 10 11 12 13 14 15
000
FTUS43 KGRB 221124
TAFMTW
TAF
KMTW 221124Z 2212/2312 20005KT 4SM BR SCT120 WS020/25035KT
      TEMPO 2212/2215 2SM BR SCT005
     FM221500 20006KT 6SM BR SCT120
     FM230400 25006KT P6SM SCT110
     FM230600 28007KT P6SM FEW090
     FM231100 33007KT P6SM SCT035=

USA.gov is the U.S. government's official web portal to all federal, state and local government web resources and services.